Time;durP1;ratioP1;P1;durP2;ratioP2;P2;SDS_P1;SDS_P2;PMS_P1;PMS_P2;Temp;Humidity;BMP_temperature;BMP_pressure;BME280_temperature;BME280_humidity;BME280_pressure;Samples;Min_cycle;Max_cycle;Signal;HPM_P1;HPM_P2
2023/03/14 00:02:22;;;;;;;2.87;1.80;;;;;;;;;;5087125;28;20208;-78
2023/03/14 00:04:49;;;;;;;3.83;2.27;;;;;;;;;;5081954;28;20207;-78
2023/03/14 00:07:17;;;;;;;3.53;2.20;;;;;;;;;;5080079;28;20236;-80
2023/03/14 00:09:44;;;;;;;3.77;2.83;;;;;;;;;;5085655;28;20236;-79
2023/03/14 00:12:11;;;;;;;4.10;2.83;;;;;;;;;;5089080;28;20208;-78
2023/03/14 00:14:38;;;;;;;3.20;2.90;;;;;;;;;;5093477;28;20204;-78
2023/03/14 00:17:05;;;;;;;4.30;3.10;;;;;;;;;;5093225;28;20678;-78
2023/03/14 00:19:31;;;;;;;3.50;2.60;;;;;;;;;;5093822;28;20600;-78
2023/03/14 00:21:58;;;;;;;4.50;3.87;;;;;;;;;;5080146;28;20201;-78
2023/03/14 00:24:26;;;;;;;6.73;3.43;;;;;;;;;;5084709;28;20683;-78
2023/03/14 00:26:53;;;;;;;4.77;3.67;;;;;;;;;;5086374;28;20666;-78
2023/03/14 00:29:20;;;;;;;4.10;3.03;;;;;;;;;;5073487;28;20276;-78
2023/03/14 00:31:46;;;;;;;3.60;2.53;;;;;;;;;;5059639;28;20255;-78
2023/03/14 00:34:13;;;;;;;3.43;3.13;;;;;;;;;;5081910;28;20212;-79
2023/03/14 00:36:40;;;;;;;3.87;2.67;;;;;;;;;;5077737;28;20205;-78
2023/03/14 00:39:06;;;;;;;2.47;2.20;;;;;;;;;;5073184;28;20637;-78
2023/03/14 00:41:34;;;;;;;7.07;3.83;;;;;;;;;;5086072;28;20208;-78
2023/03/14 00:44:01;;;;;;;6.87;4.33;;;;;;;;;;5072768;28;20709;-78
2023/03/14 00:46:28;;;;;;;4.40;3.30;;;;;;;;;;5072493;28;20662;-78
2023/03/14 00:48:55;;;;;;;3.77;2.50;;;;;;;;;;5072642;28;20659;-78
2023/03/14 00:51:22;;;;;;;2.77;2.50;;;;;;;;;;5086304;28;20208;-78
2023/03/14 00:53:49;;;;;;;14.63;7.60;;;;;;;;;;5072420;28;20219;-79
2023/03/14 00:56:15;;;;;;;4.43;3.40;;;;;;;;;;5072739;28;20292;-78
2023/03/14 00:58:44;;;;;;;6.97;4.83;;;;;;;;;;5081540;28;20265;-79
2023/03/14 01:01:13;;;;;;;4.03;3.37;;;;;;;;;;5076554;28;20205;-78
2023/03/14 01:03:40;;;;;;;4.83;2.33;;;;;;;;;;5072825;28;20630;-79
2023/03/14 01:06:11;;;;;;;4.27;2.37;;;;;;;;;;5072137;28;20212;-78
2023/03/14 01:08:38;;;;;;;4.80;2.50;;;;;;;;;;5082871;28;20331;-78
2023/03/14 01:11:09;;;;;;;5.13;4.40;;;;;;;;;;5079838;28;20678;-78
2023/03/14 01:13:37;;;;;;;2.47;2.27;;;;;;;;;;5079504;28;20557;-78
2023/03/14 01:16:07;;;;;;;5.70;3.70;;;;;;;;;;5071634;28;20699;-78
2023/03/14 01:18:34;;;;;;;4.07;3.70;;;;;;;;;;5085646;28;20265;-79
2023/03/14 01:21:01;;;;;;;2.57;2.07;;;;;;;;;;5065989;28;21011;-78
2023/03/14 01:23:28;;;;;;;7.20;6.50;;;;;;;;;;5078293;28;20215;-78
2023/03/14 01:25:55;;;;;;;4.90;4.50;;;;;;;;;;5071977;28;20212;-78
2023/03/14 01:28:22;;;;;;;3.57;3.30;;;;;;;;;;5072168;28;20239;-79
2023/03/14 01:30:48;;;;;;;3.40;2.97;;;;;;;;;;5072333;28;20263;-78
2023/03/14 01:33:16;;;;;;;3.20;2.90;;;;;;;;;;5072233;28;20261;-79
2023/03/14 01:35:43;;;;;;;4.57;1.90;;;;;;;;;;5084015;28;20208;-79
2023/03/14 01:38:10;;;;;;;3.10;1.73;;;;;;;;;;5072993;28;20642;-79
2023/03/14 01:40:43;;;;;;;2.50;2.07;;;;;;;;;;5083936;28;20201;-78
2023/03/14 01:43:15;;;;;;;2.30;1.90;;;;;;;;;;5072298;28;20205;-78
2023/03/14 01:46:14;;;;;;;5.17;3.40;;;;;;;;;;5071617;28;20209;-83
2023/03/14 01:48:46;;;;;;;3.97;2.77;;;;;;;;;;5043618;28;20232;-78
2023/03/14 01:51:15;;;;;;;3.10;2.80;;;;;;;;;;5089928;28;20590;-79
2023/03/14 01:53:43;;;;;;;3.93;2.07;;;;;;;;;;5071493;28;20205;-86
2023/03/14 01:56:10;;;;;;;3.27;2.13;;;;;;;;;;5088163;28;20207;-79
2023/03/14 01:58:39;;;;;;;4.37;2.57;;;;;;;;;;5082557;28;20262;-78
2023/03/14 02:01:07;;;;;;;4.07;2.87;;;;;;;;;;5084538;28;20201;-79
2023/03/14 02:03:39;;;;;;;4.57;3.13;;;;;;;;;;5081770;28;20204;-79
2023/03/14 02:06:08;;;;;;;3.53;2.70;;;;;;;;;;5073203;28;20216;-79
2023/03/14 02:08:36;;;;;;;3.20;2.90;;;;;;;;;;5071655;28;20245;-79
2023/03/14 02:11:03;;;;;;;3.63;2.47;;;;;;;;;;5076355;28;20200;-79
2023/03/14 02:13:30;;;;;;;3.60;3.10;;;;;;;;;;5078839;28;20262;-79
2023/03/14 02:15:56;;;;;;;3.70;2.40;;;;;;;;;;5084939;28;20278;-79
2023/03/14 02:18:23;;;;;;;3.13;2.17;;;;;;;;;;5071084;28;20710;-79
2023/03/14 02:20:54;;;;;;;2.13;2.00;;;;;;;;;;5071037;28;20201;-79
2023/03/14 02:23:27;;;;;;;2.07;1.87;;;;;;;;;;5084435;28;20276;-79
2023/03/14 02:25:59;;;;;;;3.07;2.77;;;;;;;;;;5065958;28;20196;-79
2023/03/14 02:28:27;;;;;;;2.27;2.10;;;;;;;;;;5075970;28;20233;-79
2023/03/14 02:30:53;;;;;;;2.40;1.97;;;;;;;;;;5079701;28;20208;-78
2023/03/14 02:33:21;;;;;;;2.97;2.00;;;;;;;;;;5089132;28;20253;-79
2023/03/14 02:35:51;;;;;;;3.53;1.50;;;;;;;;;;5080063;28;20208;-79
2023/03/14 02:38:22;;;;;;;1.57;1.47;;;;;;;;;;5074550;28;20216;-79
2023/03/14 02:40:49;;;;;;;2.00;1.73;;;;;;;;;;5081319;28;20215;-79
2023/03/14 02:43:16;;;;;;;1.77;1.60;;;;;;;;;;5090558;28;20691;-79
2023/03/14 02:45:45;;;;;;;1.50;1.43;;;;;;;;;;5091637;28;20319;-79
2023/03/14 02:48:17;;;;;;;2.87;1.80;;;;;;;;;;5086682;28;20232;-79
2023/03/14 02:50:45;;;;;;;1.53;1.23;;;;;;;;;;5070795;28;20625;-80
2023/03/14 02:53:14;;;;;;;1.63;1.53;;;;;;;;;;5089772;28;20253;-79
2023/03/14 02:55:40;;;;;;;1.50;1.40;;;;;;;;;;5078293;28;20711;-79
2023/03/14 02:58:07;;;;;;;2.70;1.60;;;;;;;;;;5071008;28;20208;-79
2023/03/14 03:00:35;;;;;;;1.60;1.50;;;;;;;;;;5084138;28;20594;-79
2023/03/14 03:03:05;;;;;;;1.53;1.43;;;;;;;;;;5084066;28;20296;-79
2023/03/14 03:05:32;;;;;;;1.40;1.30;;;;;;;;;;5084293;28;20204;-79
2023/03/14 03:07:59;;;;;;;1.40;1.30;;;;;;;;;;5078047;28;20647;-79
2023/03/14 03:10:26;;;;;;;2.10;1.40;;;;;;;;;;5087061;28;20686;-79
2023/03/14 03:12:52;;;;;;;2.37;2.17;;;;;;;;;;5083958;28;20266;-79
2023/03/14 03:15:19;;;;;;;5.23;3.47;;;;;;;;;;5083432;28;20643;-79
2023/03/14 03:17:46;;;;;;;5.70;4.00;;;;;;;;;;5091142;28;20201;-79
2023/03/14 03:20:14;;;;;;;3.90;3.60;;;;;;;;;;5090586;28;20262;-77
2023/03/14 03:22:40;;;;;;;3.83;3.50;;;;;;;;;;5083574;28;20219;-77
2023/03/14 03:25:08;;;;;;;4.23;3.07;;;;;;;;;;5086120;28;20204;-77
2023/03/14 03:27:37;;;;;;;3.90;3.17;;;;;;;;;;5094317;28;20224;-77
2023/03/14 03:30:05;;;;;;;27.73;18.07;;;;;;;;;;5080495;28;20216;-77
2023/03/14 03:32:32;;;;;;;17.17;11.60;;;;;;;;;;5094001;28;20212;-80
2023/03/14 03:34:59;;;;;;;5.57;4.10;;;;;;;;;;5078715;28;20209;-79
2023/03/14 03:37:28;;;;;;;4.77;3.67;;;;;;;;;;5074015;28;20263;-80
2023/03/14 03:39:54;;;;;;;2.87;2.63;;;;;;;;;;5087986;28;20201;-81
2023/03/14 03:42:21;;;;;;;4.17;2.80;;;;;;;;;;5083847;28;20269;-81
2023/03/14 03:44:48;;;;;;;5.50;3.40;;;;;;;;;;5091096;28;20201;-81
2023/03/14 03:47:15;;;;;;;5.50;3.57;;;;;;;;;;5073653;28;20687;-81
2023/03/14 03:49:44;;;;;;;3.93;3.57;;;;;;;;;;5074115;28;20201;-80
2023/03/14 03:52:11;;;;;;;4.40;3.20;;;;;;;;;;5084498;28;20204;-80
2023/03/14 03:54:39;;;;;;;6.87;5.00;;;;;;;;;;5089891;28;20213;-81
2023/03/14 03:57:06;;;;;;;4.10;3.40;;;;;;;;;;5077333;28;20216;-83
2023/03/14 03:59:32;;;;;;;7.37;4.33;;;;;;;;;;5082260;28;20729;-80
2023/03/14 04:01:59;;;;;;;5.30;3.40;;;;;;;;;;5090469;28;20212;-84
2023/03/14 04:04:26;;;;;;;3.10;2.80;;;;;;;;;;5078635;28;20744;-80
2023/03/14 04:06:53;;;;;;;2.97;2.50;;;;;;;;;;5083510;28;20207;-81
2023/03/14 04:09:19;;;;;;;1.67;1.57;;;;;;;;;;5075102;28;20297;-81
2023/03/14 04:11:48;;;;;;;1.73;1.63;;;;;;;;;;5073311;28;20769;-80
2023/03/14 04:14:14;;;;;;;1.87;1.77;;;;;;;;;;5085607;28;20270;-84
2023/03/14 04:16:41;;;;;;;1.93;1.53;;;;;;;;;;5073666;28;20197;-81
2023/03/14 04:19:08;;;;;;;2.07;1.80;;;;;;;;;;5087431;28;20209;-80
2023/03/14 04:21:35;;;;;;;1.90;1.57;;;;;;;;;;5085813;28;20683;-80
2023/03/14 04:24:01;;;;;;;1.33;1.23;;;;;;;;;;5087465;28;20205;-80
2023/03/14 04:26:28;;;;;;;3.03;1.87;;;;;;;;;;5073429;28;20212;-81
2023/03/14 04:28:56;;;;;;;1.70;1.60;;;;;;;;;;5086591;28;20244;-80
2023/03/14 04:31:23;;;;;;;2.00;1.70;;;;;;;;;;5086519;28;20213;-80
2023/03/14 04:33:50;;;;;;;1.87;1.60;;;;;;;;;;5059424;28;20683;-80
2023/03/14 04:36:16;;;;;;;2.17;1.97;;;;;;;;;;5072263;28;20205;-80
2023/03/14 04:38:43;;;;;;;2.03;1.83;;;;;;;;;;5080267;28;20200;-80
2023/03/14 04:41:10;;;;;;;2.70;1.60;;;;;;;;;;5092482;28;20208;-81
2023/03/14 04:43:36;;;;;;;1.43;1.33;;;;;;;;;;5072993;28;20209;-80
2023/03/14 04:46:05;;;;;;;1.63;1.53;;;;;;;;;;5085929;28;20196;-80
2023/03/14 04:48:32;;;;;;;3.20;1.70;;;;;;;;;;5072356;28;20228;-80
2023/03/14 04:50:58;;;;;;;1.53;1.40;;;;;;;;;;5072546;28;20706;-80
2023/03/14 04:53:25;;;;;;;2.17;1.93;;;;;;;;;;5079965;28;20261;-80
2023/03/14 04:55:54;;;;;;;2.50;1.60;;;;;;;;;;5078991;28;20205;-80
2023/03/14 04:58:21;;;;;;;2.57;1.87;;;;;;;;;;5084306;28;20197;-84
2023/03/14 05:00:50;;;;;;;2.53;2.33;;;;;;;;;;5072130;28;20690;-77
2023/03/14 05:03:18;;;;;;;3.60;2.87;;;;;;;;;;5071403;28;20684;-80
2023/03/14 05:05:45;;;;;;;2.53;2.20;;;;;;;;;;5072084;28;20205;-80
2023/03/14 05:08:12;;;;;;;1.90;1.80;;;;;;;;;;5070734;28;20233;-79
2023/03/14 05:10:39;;;;;;;3.37;2.03;;;;;;;;;;5079456;28;20201;-79
2023/03/14 05:13:06;;;;;;;5.97;4.30;;;;;;;;;;5078341;28;20234;-79
2023/03/14 05:15:32;;;;;;;11.70;7.50;;;;;;;;;;5079106;28;20212;-79
2023/03/14 05:17:59;;;;;;;6.47;4.73;;;;;;;;;;5071982;28;20246;-79
2023/03/14 05:20:31;;;;;;;9.53;6.53;;;;;;;;;;5072522;28;20258;-79
2023/03/14 05:22:58;;;;;;;12.43;8.00;;;;;;;;;;5067184;28;20212;-79
2023/03/14 05:25:24;;;;;;;14.87;8.13;;;;;;;;;;5077810;28;20209;-79
2023/03/14 05:27:51;;;;;;;12.67;7.80;;;;;;;;;;5072219;28;20209;-78
2023/03/14 05:30:18;;;;;;;4.83;4.37;;;;;;;;;;5085441;28;20661;-82
2023/03/14 05:32:45;;;;;;;8.57;7.10;;;;;;;;;;5071814;28;20200;-84
2023/03/14 05:35:11;;;;;;;36.90;20.77;;;;;;;;;;5071734;28;20672;-81
2023/03/14 05:37:39;;;;;;;23.20;12.90;;;;;;;;;;5080080;28;20261;-81
2023/03/14 05:40:08;;;;;;;20.40;11.20;;;;;;;;;;5091631;28;20674;-81
2023/03/14 05:42:35;;;;;;;48.57;25.33;;;;;;;;;;5080805;28;20274;-81
2023/03/14 05:45:02;;;;;;;37.37;19.73;;;;;;;;;;5085149;28;20209;-81
2023/03/14 05:47:29;;;;;;;54.00;24.73;;;;;;;;;;5081804;28;20208;-80
2023/03/14 05:49:56;;;;;;;38.10;17.70;;;;;;;;;;5090315;28;20293;-80
2023/03/14 05:52:22;;;;;;;16.57;9.27;;;;;;;;;;5092091;28;20265;-80
2023/03/14 05:54:50;;;;;;;13.90;6.80;;;;;;;;;;5091673;28;20208;-81
2023/03/14 05:57:17;;;;;;;13.23;10.80;;;;;;;;;;5091260;28;20208;-81
2023/03/14 05:59:44;;;;;;;14.13;10.33;;;;;;;;;;5087375;28;20208;-81
2023/03/14 06:02:11;;;;;;;10.57;7.57;;;;;;;;;;5082599;28;20208;-80
2023/03/14 06:04:38;;;;;;;5.40;4.10;;;;;;;;;;5090917;28;20215;-81
2023/03/14 06:07:05;;;;;;;10.70;5.23;;;;;;;;;;5079787;28;20707;-81
2023/03/14 06:09:31;;;;;;;6.43;5.67;;;;;;;;;;5076500;28;20251;-81
2023/03/14 06:11:59;;;;;;;5.90;4.43;;;;;;;;;;5078528;28;20209;-82
2023/03/14 06:14:26;;;;;;;6.13;3.70;;;;;;;;;;5090987;28;20204;-81
2023/03/14 06:16:53;;;;;;;4.47;3.07;;;;;;;;;;5078211;28;20260;-82
2023/03/14 06:19:20;;;;;;;13.63;3.23;;;;;;;;;;5077239;28;20257;-82
2023/03/14 06:21:47;;;;;;;6.47;4.03;;;;;;;;;;5091011;28;20208;-87
2023/03/14 06:24:14;;;;;;;10.07;4.67;;;;;;;;;;5071065;28;20254;-83
2023/03/14 06:26:41;;;;;;;4.27;3.07;;;;;;;;;;5084505;28;20204;-85
2023/03/14 06:29:09;;;;;;;11.63;5.93;;;;;;;;;;5078176;28;20220;-84
2023/03/14 06:31:36;;;;;;;13.10;7.43;;;;;;;;;;5077260;28;20676;-85
2023/03/14 06:34:03;;;;;;;9.37;6.17;;;;;;;;;;5070973;28;20637;-85
2023/03/14 06:36:29;;;;;;;6.20;4.70;;;;;;;;;;5071194;28;20212;-86
2023/03/14 06:38:56;;;;;;;8.30;5.10;;;;;;;;;;5070952;28;20205;-86
2023/03/14 06:41:25;;;;;;;6.20;4.53;;;;;;;;;;5072202;28;20208;-86
2023/03/14 06:43:52;;;;;;;5.47;3.43;;;;;;;;;;5082991;28;20236;-87
2023/03/14 06:46:20;;;;;;;1.57;1.47;;;;;;;;;;5073172;28;20646;-88
2023/03/14 06:48:47;;;;;;;3.23;1.97;;;;;;;;;;5091721;28;20224;-87
2023/03/14 06:51:14;;;;;;;4.43;2.63;;;;;;;;;;5077916;28;20274;-87
2023/03/14 06:53:41;;;;;;;4.93;2.30;;;;;;;;;;5082269;28;20617;-87
2023/03/14 06:56:08;;;;;;;2.80;2.07;;;;;;;;;;5084387;28;20231;-87
2023/03/14 06:58:35;;;;;;;2.87;2.10;;;;;;;;;;5071161;28;20209;-87
2023/03/14 07:01:02;;;;;;;1.73;1.63;;;;;;;;;;5077271;28;20204;-87
2023/03/14 07:03:30;;;;;;;1.77;1.67;;;;;;;;;;5084828;28;20201;-88
2023/03/14 07:05:57;;;;;;;3.17;2.00;;;;;;;;;;5088330;28;20259;-88
2023/03/14 07:08:24;;;;;;;6.77;4.37;;;;;;;;;;5085815;28;20636;-88
2023/03/14 07:10:51;;;;;;;7.57;3.70;;;;;;;;;;5094173;28;20666;-89
2023/03/14 07:13:18;;;;;;;6.00;2.73;;;;;;;;;;5095092;28;20247;-88
2023/03/14 07:15:47;;;;;;;1.90;1.80;;;;;;;;;;5091853;28;20209;-88
2023/03/14 07:18:13;;;;;;;5.07;1.90;;;;;;;;;;5075021;28;20821;-88
2023/03/14 07:20:42;;;;;;;5.53;1.60;;;;;;;;;;5088455;28;20263;-88
2023/03/14 07:23:08;;;;;;;2.53;1.50;;;;;;;;;;5075383;28;20197;-88
2023/03/14 07:25:35;;;;;;;1.83;1.30;;;;;;;;;;5074996;28;20262;-88
2023/03/14 07:28:02;;;;;;;2.07;1.43;;;;;;;;;;5075311;28;20287;-88
2023/03/14 07:30:29;;;;;;;3.80;1.80;;;;;;;;;;5074919;28;20286;-88
2023/03/14 07:32:55;;;;;;;1.73;1.57;;;;;;;;;;5075363;28;20205;-88
2023/03/14 07:35:22;;;;;;;2.00;1.77;;;;;;;;;;5075361;28;20228;-89
2023/03/14 07:37:51;;;;;;;1.37;1.20;;;;;;;;;;5074730;28;20201;-94
2023/03/14 07:40:18;;;;;;;2.00;1.63;;;;;;;;;;5075438;28;20749;-88
2023/03/14 07:42:44;;;;;;;1.53;1.40;;;;;;;;;;5087358;28;20209;-89
2023/03/14 07:45:12;;;;;;;1.93;1.80;;;;;;;;;;5095166;28;20200;-89
2023/03/14 07:47:39;;;;;;;6.60;2.00;;;;;;;;;;5082739;28;20205;-88
2023/03/14 07:50:07;;;;;;;8.23;5.07;;;;;;;;;;5075144;28;20232;-90
2023/03/14 07:52:33;;;;;;;5.43;2.43;;;;;;;;;;5075240;28;20213;-88
2023/03/14 07:55:01;;;;;;;1.80;1.70;;;;;;;;;;5081275;28;20212;-89
2023/03/14 07:57:28;;;;;;;4.20;2.10;;;;;;;;;;5082109;28;20209;-89
2023/03/14 07:59:55;;;;;;;5.10;1.73;;;;;;;;;;5075014;28;20274;-89
2023/03/14 08:02:23;;;;;;;2.90;2.03;;;;;;;;;;5075219;28;20263;-89
2023/03/14 08:04:50;;;;;;;5.33;2.00;;;;;;;;;;5068898;28;20208;-89
2023/03/14 08:07:17;;;;;;;1.80;1.70;;;;;;;;;;5094882;28;20277;-90
2023/03/14 08:09:44;;;;;;;2.83;2.10;;;;;;;;;;5054985;28;20241;-89
2023/03/14 08:12:14;;;;;;;5.20;1.53;;;;;;;;;;5082969;28;20211;-89
2023/03/14 08:14:41;;;;;;;2.10;1.90;;;;;;;;;;5094822;28;20205;-89
2023/03/14 08:17:08;;;;;;;4.40;1.73;;;;;;;;;;5093525;28;20265;-89
2023/03/14 08:19:35;;;;;;;2.67;1.93;;;;;;;;;;5082955;28;20261;-89
2023/03/14 08:22:02;;;;;;;1.57;1.47;;;;;;;;;;5080794;28;20212;-89
2023/03/14 08:24:28;;;;;;;3.00;1.53;;;;;;;;;;5094653;28;20722;-89
2023/03/14 08:26:55;;;;;;;2.57;1.73;;;;;;;;;;5081120;28;20664;-89
2023/03/14 08:29:23;;;;;;;1.67;1.50;;;;;;;;;;5086381;28;20707;-90
2023/03/14 08:31:50;;;;;;;1.67;1.57;;;;;;;;;;5088274;28;20585;-89
2023/03/14 08:34:17;;;;;;;1.67;1.57;;;;;;;;;;5083538;28;20700;-89
2023/03/14 08:36:44;;;;;;;3.23;1.80;;;;;;;;;;5094349;28;20214;-89
2023/03/14 08:39:11;;;;;;;1.67;1.57;;;;;;;;;;5084882;28;20217;-89
2023/03/14 08:41:40;;;;;;;2.07;1.93;;;;;;;;;;5090568;28;20208;-89
2023/03/14 08:44:07;;;;;;;3.13;2.17;;;;;;;;;;5084701;28;20660;-89
2023/03/14 08:46:36;;;;;;;2.87;2.03;;;;;;;;;;5073989;28;20217;-89
2023/03/14 08:49:03;;;;;;;2.67;2.10;;;;;;;;;;5074208;28;20208;-89
2023/03/14 08:51:29;;;;;;;2.00;1.47;;;;;;;;;;5078050;28;20705;-91
2023/03/14 08:53:56;;;;;;;2.90;1.83;;;;;;;;;;5094243;28;20281;-90
2023/03/14 08:56:23;;;;;;;2.87;1.40;;;;;;;;;;5089763;28;20231;-92
2023/03/14 08:58:50;;;;;;;3.77;1.90;;;;;;;;;;5085338;28;20763;-89
2023/03/14 09:01:18;;;;;;;5.33;2.03;;;;;;;;;;5080462;28;20216;-89
2023/03/14 09:03:47;;;;;;;4.30;2.53;;;;;;;;;;5094029;28;20202;-89
2023/03/14 09:06:17;;;;;;;4.30;2.30;;;;;;;;;;5088120;28;20296;-89
2023/03/14 09:08:46;;;;;;;5.80;2.30;;;;;;;;;;5086762;28;20238;-89
2023/03/14 09:11:13;;;;;;;3.13;2.00;;;;;;;;;;5087197;28;20232;-90
2023/03/14 09:13:40;;;;;;;2.20;2.00;;;;;;;;;;5073711;28;20213;-90
2023/03/14 09:16:08;;;;;;;3.90;2.53;;;;;;;;;;5066816;28;20261;-89
2023/03/14 09:18:35;;;;;;;3.67;2.17;;;;;;;;;;5080029;28;20270;-90
2023/03/14 09:21:04;;;;;;;7.30;2.87;;;;;;;;;;5073054;28;20204;-90
2023/03/14 09:23:30;;;;;;;2.77;2.57;;;;;;;;;;5073152;28;20213;-89
2023/03/14 09:25:57;;;;;;;5.80;2.97;;;;;;;;;;5081000;28;20204;-90
2023/03/14 09:28:24;;;;;;;6.43;3.03;;;;;;;;;;5079337;28;20212;-89
2023/03/14 09:30:51;;;;;;;3.27;2.60;;;;;;;;;;5080691;28;20232;-90
2023/03/14 09:33:18;;;;;;;7.07;2.60;;;;;;;;;;5092909;28;20203;-89
2023/03/14 09:35:45;;;;;;;3.87;2.13;;;;;;;;;;5093450;28;20212;-90
2023/03/14 09:38:13;;;;;;;3.37;2.40;;;;;;;;;;5093142;28;20200;-90
2023/03/14 09:40:41;;;;;;;4.57;1.80;;;;;;;;;;5093181;28;20208;-89
2023/03/14 09:43:11;;;;;;;4.70;2.10;;;;;;;;;;5079380;28;20209;-89
2023/03/14 09:45:40;;;;;;;2.83;2.30;;;;;;;;;;5084492;28;20209;-89
2023/03/14 09:48:09;;;;;;;3.80;2.43;;;;;;;;;;5072736;28;20205;-92
2023/03/14 09:50:41;;;;;;;6.03;2.50;;;;;;;;;;5072818;28;20680;-89
2023/03/14 09:53:12;;;;;;;2.80;2.13;;;;;;;;;;5086197;28;20210;-90
2023/03/14 09:55:41;;;;;;;3.50;2.23;;;;;;;;;;5083852;28;20362;-90
2023/03/14 09:58:11;;;;;;;7.07;2.87;;;;;;;;;;5088402;28;20243;-89
2023/03/14 10:00:38;;;;;;;6.33;2.50;;;;;;;;;;5072602;28;20211;-89
2023/03/14 10:03:22;;;;;;;6.00;2.60;;;;;;;;;;5072874;28;20596;-89
2023/03/14 10:05:49;;;;;;;10.13;4.30;;;;;;;;;;5073925;28;20254;-89
2023/03/14 10:08:15;;;;;;;3.50;2.97;;;;;;;;;;5093065;28;20654;-89
2023/03/14 10:10:45;;;;;;;28.73;14.23;;;;;;;;;;5090680;28;20702;-89
2023/03/14 10:13:17;;;;;;;9.03;3.37;;;;;;;;;;5072933;28;20722;-89
2023/03/14 10:15:49;;;;;;;4.20;2.90;;;;;;;;;;5075336;28;20196;-88
2023/03/14 10:18:16;;;;;;;5.83;3.13;;;;;;;;;;5092840;28;20611;-89
2023/03/14 10:20:44;;;;;;;7.37;3.43;;;;;;;;;;5077872;28;20760;-90
2023/03/14 10:23:24;;;;;;;4.30;3.97;;;;;;;;;;5092767;28;20291;-89
2023/03/14 10:26:04;;;;;;;3.03;2.83;;;;;;;;;;5078622;28;20284;-89
2023/03/14 10:28:33;;;;;;;4.20;2.70;;;;;;;;;;5077578;28;20212;-89
2023/03/14 10:31:00;;;;;;;7.13;2.47;;;;;;;;;;5072408;28;20345;-89
2023/03/14 10:33:29;;;;;;;3.67;2.83;;;;;;;;;;5085560;28;20616;-89
2023/03/14 10:35:57;;;;;;;5.07;2.97;;;;;;;;;;5071877;28;20207;-89
2023/03/14 10:38:25;;;;;;;9.37;6.47;;;;;;;;;;5074196;28;20283;-89
2023/03/14 10:40:53;;;;;;;6.97;3.87;;;;;;;;;;5083299;28;20660;-89
2023/03/14 10:43:26;;;;;;;8.43;7.53;;;;;;;;;;5075028;28;20769;-89
2023/03/14 10:45:57;;;;;;;3.97;2.90;;;;;;;;;;5081616;28;20329;-89
2023/03/14 10:48:26;;;;;;;4.27;2.80;;;;;;;;;;5072260;28;20236;-89
2023/03/14 10:50:57;;;;;;;3.17;2.87;;;;;;;;;;5072238;28;20765;-89
2023/03/14 10:53:25;;;;;;;3.53;2.57;;;;;;;;;;5077785;28;20215;-88
2023/03/14 10:55:52;;;;;;;2.13;2.03;;;;;;;;;;5092341;28;20208;-88
2023/03/14 10:58:26;;;;;;;3.77;2.90;;;;;;;;;;5092253;28;20205;-88
2023/03/14 11:01:01;;;;;;;3.80;3.43;;;;;;;;;;5078044;28;20731;-89
2023/03/14 11:03:31;;;;;;;3.37;2.70;;;;;;;;;;5072130;28;20200;-88
2023/03/14 11:06:00;;;;;;;5.43;3.27;;;;;;;;;;5074447;28;20204;-88
2023/03/14 11:08:32;;;;;;;3.17;2.97;;;;;;;;;;5082213;28;20225;-88
2023/03/14 11:11:08;;;;;;;4.63;3.67;;;;;;;;;;5071620;28;20229;-89
2023/03/14 11:13:40;;;;;;;8.00;5.70;;;;;;;;;;5071664;28;20277;-88
2023/03/14 11:16:10;;;;;;;4.67;3.73;;;;;;;;;;5051818;28;20202;-89
2023/03/14 11:19:05;;;;;;;8.73;5.73;;;;;;;;;;5065768;28;20587;-89
2023/03/14 11:21:37;;;;;;;17.93;8.70;;;;;;;;;;5069490;28;20227;-89
2023/03/14 11:24:17;;;;;;;6.03;4.20;;;;;;;;;;5090039;28;20234;-88
2023/03/14 11:26:48;;;;;;;11.57;4.60;;;;;;;;;;5078195;28;20216;-88
2023/03/14 11:29:24;;;;;;;5.37;3.13;;;;;;;;;;5071879;28;20240;-89
2023/03/14 11:31:53;;;;;;;3.53;3.13;;;;;;;;;;5071245;28;20236;-88
2023/03/14 11:34:27;;;;;;;4.43;3.13;;;;;;;;;;5071174;28;20203;-88
2023/03/14 11:36:57;;;;;;;6.90;3.63;;;;;;;;;;5088756;28;20232;-88
2023/03/14 11:39:24;;;;;;;8.43;5.07;;;;;;;;;;5080375;28;20197;-88
2023/03/14 11:41:53;;;;;;;6.43;3.83;;;;;;;;;;5088648;28;20208;-88
2023/03/14 11:44:25;;;;;;;4.80;4.40;;;;;;;;;;5080387;28;20215;-88
2023/03/14 11:46:54;;;;;;;2.23;1.87;;;;;;;;;;5071638;28;20825;-88
2023/03/14 11:49:28;;;;;;;2.37;2.17;;;;;;;;;;5074479;28;20209;-88
2023/03/14 11:51:59;;;;;;;3.40;2.80;;;;;;;;;;5074446;28;20231;-88
2023/03/14 11:54:34;;;;;;;4.07;2.20;;;;;;;;;;5074730;28;20235;-87
2023/03/14 11:57:03;;;;;;;2.93;2.60;;;;;;;;;;5083383;28;20215;-88
2023/03/14 11:59:35;;;;;;;3.37;2.47;;;;;;;;;;5092120;28;20204;-88
2023/03/14 12:02:05;;;;;;;2.00;1.90;;;;;;;;;;5084251;28;20215;-88
2023/03/14 12:04:50;;;;;;;2.03;1.93;;;;;;;;;;5077305;28;20663;-88
2023/03/14 12:07:21;;;;;;;3.50;2.17;;;;;;;;;;5073161;28;20231;-88
2023/03/14 12:09:50;;;;;;;3.40;2.47;;;;;;;;;;5069087;28;20638;-87
2023/03/14 12:12:20;;;;;;;3.00;2.70;;;;;;;;;;5080377;28;20719;-88
2023/03/14 12:14:54;;;;;;;2.30;2.03;;;;;;;;;;5085362;28;20205;-88
2023/03/14 12:17:26;;;;;;;2.50;2.30;;;;;;;;;;5073789;28;20655;-87
2023/03/14 12:20:07;;;;;;;3.03;2.47;;;;;;;;;;5074053;28;20219;-87
2023/03/14 12:22:35;;;;;;;2.43;2.20;;;;;;;;;;5093780;28;20200;-87
2023/03/14 12:25:06;;;;;;;3.10;2.80;;;;;;;;;;5080310;28;20208;-88
2023/03/14 12:27:47;;;;;;;3.90;2.60;;;;;;;;;;5073348;28;20292;-87
2023/03/14 12:30:30;;;;;;;3.70;2.70;;;;;;;;;;5090037;28;20643;-87
2023/03/14 12:33:27;;;;;;;2.53;2.33;;;;;;;;;;5081244;28;20304;-86
2023/03/14 12:35:59;;;;;;;3.90;2.30;;;;;;;;;;5063294;28;20231;-89
2023/03/14 12:38:32;;;;;;;3.93;3.53;;;;;;;;;;5073335;28;20216;-87
2023/03/14 12:41:05;;;;;;;2.50;2.30;;;;;;;;;;5073107;28;20212;-87
2023/03/14 12:43:34;;;;;;;2.50;2.27;;;;;;;;;;5086705;28;20273;-87
2023/03/14 12:46:20;;;;;;;10.33;9.33;;;;;;;;;;5086951;28;20212;-88
2023/03/14 12:48:47;;;;;;;3.07;2.77;;;;;;;;;;5083206;28;20207;-87
2023/03/14 12:51:16;;;;;;;2.57;2.37;;;;;;;;;;5092742;28;20768;-87
2023/03/14 12:54:22;;;;;;;4.00;2.63;;;;;;;;;;5082797;28;20270;-87
2023/03/14 12:57:04;;;;;;;3.60;2.83;;;;;;;;;;5072624;28;20224;-87
2023/03/14 12:59:33;;;;;;;3.80;2.67;;;;;;;;;;5073077;28;20215;-87
2023/03/14 13:02:23;;;;;;;4.20;2.70;;;;;;;;;;5072896;28;20209;-87
2023/03/14 13:04:51;;;;;;;2.87;2.67;;;;;;;;;;5073166;28;20566;-87
2023/03/14 13:08:03;;;;;;;3.83;3.50;;;;;;;;;;5072630;28;20197;-87
2023/03/14 13:10:31;;;;;;;3.97;3.63;;;;;;;;;;5088047;28;20840;-87
2023/03/14 13:13:02;;;;;;;4.27;3.17;;;;;;;;;;5080125;28;20204;-88
2023/03/14 13:15:32;;;;;;;5.10;4.57;;;;;;;;;;5077657;28;20208;-87
2023/03/14 13:18:04;;;;;;;3.90;2.97;;;;;;;;;;5072229;28;20752;-87
2023/03/14 13:20:33;;;;;;;9.73;7.20;;;;;;;;;;5088510;28;20218;-87
2023/03/14 13:22:59;;;;;;;4.80;4.23;;;;;;;;;;5083337;28;20219;-86
2023/03/14 13:25:30;;;;;;;6.77;5.43;;;;;;;;;;5075401;28;20207;-88
2023/03/14 13:27:57;;;;;;;6.17;5.13;;;;;;;;;;5082243;28;20625;-87
2023/03/14 13:30:27;;;;;;;4.47;2.50;;;;;;;;;;5072217;28;20705;-87
2023/03/14 13:32:54;;;;;;;3.53;3.10;;;;;;;;;;5072214;28;20318;-86
2023/03/14 13:35:25;;;;;;;4.80;3.20;;;;;;;;;;5085654;28;20219;-86
2023/03/14 13:37:59;;;;;;;3.57;2.97;;;;;;;;;;5084180;28;20204;-87
2023/03/14 13:40:30;;;;;;;2.70;2.50;;;;;;;;;;5071823;28;20205;-87
2023/03/14 13:43:03;;;;;;;4.37;2.43;;;;;;;;;;5085827;28;20208;-87
2023/03/14 13:45:30;;;;;;;7.40;4.83;;;;;;;;;;5071606;28;20758;-87
2023/03/14 13:47:57;;;;;;;9.40;5.50;;;;;;;;;;5086982;28;20253;-87
2023/03/14 13:50:25;;;;;;;9.73;6.20;;;;;;;;;;5092031;28;20637;-87
2023/03/14 13:52:56;;;;;;;4.73;3.97;;;;;;;;;;5076264;28;20320;-87
2023/03/14 13:55:23;;;;;;;6.83;4.40;;;;;;;;;;5081578;28;20208;-87
2023/03/14 13:57:54;;;;;;;3.40;2.30;;;;;;;;;;5075227;28;20216;-86
2023/03/14 14:00:26;;;;;;;5.10;3.70;;;;;;;;;;5071638;28;20215;-87
2023/03/14 14:02:53;;;;;;;6.17;3.07;;;;;;;;;;5076163;28;20208;-87
2023/03/14 14:05:23;;;;;;;4.30;3.40;;;;;;;;;;5079904;28;20619;-87
2023/03/14 14:07:52;;;;;;;5.73;2.80;;;;;;;;;;5071383;28;20233;-87
2023/03/14 14:10:19;;;;;;;3.17;2.87;;;;;;;;;;5071056;28;20672;-87
2023/03/14 14:12:50;;;;;;;5.33;2.70;;;;;;;;;;5084999;28;20335;-87
2023/03/14 14:15:20;;;;;;;4.63;2.47;;;;;;;;;;5084439;28;20212;-87
2023/03/14 14:17:49;;;;;;;5.70;2.77;;;;;;;;;;5084744;28;20211;-87
2023/03/14 14:20:26;;;;;;;2.80;2.50;;;;;;;;;;5071832;28;20263;-87
2023/03/14 14:22:54;;;;;;;6.73;3.80;;;;;;;;;;5082212;28;20289;-87
2023/03/14 14:25:21;;;;;;;7.33;3.33;;;;;;;;;;5087761;28;20276;-88
2023/03/14 14:27:50;;;;;;;8.80;4.30;;;;;;;;;;5091544;28;20204;-87
2023/03/14 14:30:31;;;;;;;5.63;3.43;;;;;;;;;;5088027;28;20220;-87
2023/03/14 14:33:14;;;;;;;8.30;5.67;;;;;;;;;;5070866;28;20236;-87
2023/03/14 14:35:41;;;;;;;7.47;4.80;;;;;;;;;;5066218;28;20290;-93
2023/03/14 14:38:14;;;;;;;4.20;3.30;;;;;;;;;;5090750;28;20212;-87
2023/03/14 14:40:45;;;;;;;16.13;9.20;;;;;;;;;;5079400;28;20204;-92
2023/03/14 14:43:18;;;;;;;10.47;5.07;;;;;;;;;;5077649;28;20243;-87
2023/03/14 14:45:46;;;;;;;29.47;13.33;;;;;;;;;;5081103;28;20205;-86
2023/03/14 14:48:24;;;;;;;22.07;8.83;;;;;;;;;;5088240;28;20235;-87
2023/03/14 14:51:02;;;;;;;27.07;13.73;;;;;;;;;;5078628;28;20258;-87
2023/03/14 14:53:32;;;;;;;5.97;4.17;;;;;;;;;;5057803;28;20205;-87